createdAt,value
2022-12-03T00:00:59.671Z,61.95
2022-12-03T00:03:30.710Z,64.32
2022-12-03T00:05:59.044Z,62.40
2022-12-03T00:08:27.499Z,64.47
2022-12-03T00:10:55.769Z,64.13
2022-12-03T00:13:24.328Z,69.00
2022-12-03T00:15:52.605Z,68.35
2022-12-03T00:18:20.999Z,71.20
2022-12-03T00:20:50.650Z,67.70
2022-12-03T00:23:19.088Z,62.22
2022-12-03T00:25:47.458Z,60.10
2022-12-03T00:28:15.789Z,60.95
2022-12-03T00:30:44.009Z,64.97
2022-12-03T00:33:12.382Z,64.85
2022-12-03T00:35:40.540Z,65.20
2022-12-03T00:38:10.458Z,68.15
2022-12-03T00:40:38.801Z,67.28
2022-12-03T00:43:07.181Z,62.95
2022-12-03T00:45:35.284Z,70.93
2022-12-03T00:48:03.703Z,70.68
2022-12-03T00:50:31.887Z,74.75
2022-12-03T00:53:00.288Z,71.25
2022-12-03T00:55:29.735Z,73.97
2022-12-03T00:57:58.099Z,65.93
2022-12-03T01:00:26.442Z,69.80
2022-12-03T01:02:55.042Z,68.43
2022-12-03T01:05:23.459Z,64.00
2022-12-03T01:07:52.240Z,71.88
2022-12-03T01:10:20.618Z,61.53
2022-12-03T01:12:50.540Z,63.88
2022-12-03T01:15:19.162Z,61.78
2022-12-03T01:17:47.757Z,66.38
2022-12-03T01:20:15.927Z,72.28
2022-12-03T01:22:44.383Z,66.18
2022-12-03T01:25:12.443Z,60.40
2022-12-03T01:27:40.909Z,61.05
2022-12-03T01:30:13.688Z,64.50
2022-12-03T01:32:41.080Z,62.50
2022-12-03T01:35:09.788Z,63.33
2022-12-03T01:37:38.286Z,65.93
2022-12-03T01:40:08.509Z,63.70
2022-12-03T01:42:39.577Z,60.38
2022-12-03T01:45:13.047Z,60.78
2022-12-03T01:47:41.559Z,60.00
2022-12-03T01:50:16.364Z,57.38
2022-12-03T01:52:45.617Z,55.70
2022-12-03T01:55:15.686Z,56.55
2022-12-03T01:57:46.752Z,57.53
2022-12-03T02:00:18.297Z,62.88
2022-12-03T02:02:48.296Z,65.53
2022-12-03T02:05:19.352Z,58.70
2022-12-03T02:10:17.824Z,55.22
2022-12-03T02:12:49.327Z,54.05
2022-12-03T02:17:47.188Z,57.00
2022-12-03T02:20:15.512Z,53.63
2022-12-03T02:22:47.912Z,56.25
2022-12-03T02:25:19.799Z,57.50
2022-12-03T02:27:49.432Z,55.65
2022-12-03T02:30:19.522Z,52.83
2022-12-03T02:32:48.628Z,55.72
2022-12-03T02:35:18.724Z,54.05
2022-12-03T02:37:48.069Z,56.93
2022-12-03T02:40:21.030Z,52.67
2022-12-03T02:42:48.937Z,54.38
2022-12-03T02:45:20.794Z,51.88
2022-12-03T02:47:52.292Z,53.75
2022-12-03T02:50:23.527Z,56.50
2022-12-03T02:52:53.349Z,52.28
2022-12-03T02:55:23.365Z,51.17
2022-12-03T02:57:52.276Z,51.20
2022-12-03T03:00:23.119Z,54.42
2022-12-03T03:02:51.796Z,54.20
2022-12-03T03:05:22.248Z,55.10
2022-12-03T03:07:51.939Z,52.17
2022-12-03T03:10:24.237Z,55.08
2022-12-03T03:12:54.406Z,53.55
2022-12-03T03:15:23.459Z,52.50
2022-12-03T03:17:52.031Z,50.20
2022-12-03T03:20:20.527Z,51.72
2022-12-03T03:22:49.009Z,50.22
2022-12-03T03:25:19.076Z,48.25
2022-12-03T03:27:48.902Z,49.20
2022-12-03T03:30:17.503Z,41.83
2022-12-03T03:32:45.880Z,45.80
2022-12-03T03:35:14.952Z,49.67
2022-12-03T03:37:43.369Z,49.65
2022-12-03T03:40:12.329Z,51.95
2022-12-03T03:42:40.776Z,45.47
2022-12-03T03:45:11.127Z,47.78
2022-12-03T03:47:39.639Z,46.95
2022-12-03T03:50:09.829Z,47.50
2022-12-03T03:52:39.307Z,47.17
2022-12-03T03:55:08.541Z,45.40
2022-12-03T03:57:37.235Z,53.47
2022-12-03T04:00:06.922Z,49.28
2022-12-03T04:02:38.406Z,48.88
2022-12-03T04:07:35.943Z,46.45
2022-12-03T04:10:24.810Z,49.05
2022-12-03T04:12:58.240Z,45.25
2022-12-03T04:15:26.763Z,47.15
2022-12-03T04:18:14.739Z,50.03
2022-12-03T04:20:43.331Z,50.70
2022-12-03T04:23:10.855Z,50.67
2022-12-03T04:25:56.623Z,53.03
2022-12-03T04:28:42.295Z,46.58
2022-12-03T04:31:24.602Z,45.80
2022-12-03T04:34:12.118Z,49.55
2022-12-03T04:36:40.535Z,50.03
2022-12-03T04:39:09.144Z,53.58
2022-12-03T04:41:37.423Z,52.80
2022-12-03T04:44:23.231Z,47.65
2022-12-03T04:46:51.458Z,49.28
2022-12-03T04:49:21.210Z,53.38
2022-12-03T04:51:49.395Z,52.90
2022-12-03T04:54:17.740Z,48.03
2022-12-03T04:56:45.916Z,52.92
2022-12-03T04:59:16.461Z,49.40
2022-12-03T05:01:46.287Z,51.20
2022-12-03T05:04:15.516Z,53.78
2022-12-03T05:06:45.303Z,52.13
2022-12-03T05:09:13.911Z,53.30
2022-12-03T05:11:42.805Z,56.28
2022-12-03T05:14:12.017Z,57.08
2022-12-03T05:16:40.442Z,53.58
2022-12-03T05:19:09.960Z,56.97
2022-12-03T05:21:38.033Z,60.92
2022-12-03T05:24:08.384Z,57.33
2022-12-03T05:26:36.577Z,54.67
2022-12-03T05:29:05.211Z,58.58
2022-12-03T05:31:33.357Z,65.85
2022-12-03T05:34:01.764Z,64.00
2022-12-03T05:36:29.861Z,62.22
2022-12-03T05:38:58.292Z,65.75
2022-12-03T05:41:44.986Z,65.65
2022-12-03T05:44:16.235Z,58.60
2022-12-03T05:46:48.493Z,67.03
2022-12-03T05:49:17.096Z,70.75
2022-12-03T05:51:45.156Z,68.13
2022-12-03T05:54:13.568Z,69.18
2022-12-03T05:56:43.153Z,91.05
2022-12-03T05:59:11.519Z,72.65
2022-12-03T06:01:39.695Z,74.60
2022-12-03T06:04:08.156Z,69.70
2022-12-03T06:06:36.352Z,72.53
2022-12-03T06:09:05.170Z,74.22
2022-12-03T06:11:34.999Z,70.60
2022-12-03T06:14:04.981Z,77.40
2022-12-03T06:16:33.312Z,75.95
2022-12-03T06:19:01.688Z,74.93
2022-12-03T06:21:29.911Z,76.20
2022-12-03T06:23:58.262Z,65.35
2022-12-03T06:26:26.545Z,82.85
2022-12-03T06:28:54.973Z,73.40
2022-12-03T06:31:24.764Z,75.40
2022-12-03T06:33:53.277Z,80.07
2022-12-03T06:36:23.292Z,81.68
2022-12-03T06:38:51.962Z,80.13
2022-12-03T06:41:20.053Z,76.68
2022-12-03T06:43:48.526Z,93.53
2022-12-03T06:46:16.841Z,74.05
2022-12-03T06:48:46.655Z,74.63
2022-12-03T06:51:14.674Z,70.68
2022-12-03T06:53:43.176Z,74.03
2022-12-03T06:56:11.351Z,69.78
2022-12-03T06:58:39.953Z,78.15
2022-12-03T07:01:08.082Z,72.38
2022-12-03T07:03:36.501Z,72.28
2022-12-03T07:06:06.273Z,84.47
2022-12-03T07:08:34.636Z,79.15
2022-12-03T07:11:02.851Z,73.57
2022-12-03T07:13:31.176Z,76.97
2022-12-03T07:15:59.591Z,84.63
2022-12-03T07:18:27.989Z,77.05
2022-12-03T07:20:56.178Z,72.63
2022-12-03T07:23:25.873Z,77.63
2022-12-03T07:25:53.972Z,78.88
2022-12-03T07:28:22.313Z,79.10
2022-12-03T07:30:50.460Z,78.88
2022-12-03T07:33:18.869Z,76.47
2022-12-03T07:35:46.892Z,79.90
2022-12-03T07:38:15.378Z,77.75
2022-12-03T07:40:45.212Z,81.47
2022-12-03T07:43:13.617Z,79.82
2022-12-03T07:45:41.866Z,74.90
2022-12-03T07:48:10.414Z,72.82
2022-12-03T07:50:38.539Z,82.30
2022-12-03T07:53:07.014Z,72.72
2022-12-03T07:55:35.180Z,75.88
2022-12-03T07:58:04.902Z,78.93
2022-12-03T08:00:32.998Z,79.32
2022-12-03T08:03:01.385Z,78.78
2022-12-03T08:05:29.929Z,81.32
2022-12-03T08:07:58.405Z,88.45
2022-12-03T08:10:27.188Z,91.72
2022-12-03T08:12:57.630Z,82.40
2022-12-03T08:15:32.366Z,78.95
2022-12-03T08:18:14.179Z,78.38
2022-12-03T08:20:43.936Z,88.35
2022-12-03T08:23:14.884Z,83.03
2022-12-03T08:25:43.738Z,81.38
2022-12-03T08:28:16.734Z,94.07
2022-12-03T08:30:48.819Z,91.32
2022-12-03T08:33:22.284Z,97.10
2022-12-03T08:35:52.075Z,93.90
2022-12-03T08:38:23.041Z,76.32
2022-12-03T08:40:52.955Z,85.40
2022-12-03T08:43:22.994Z,85.57
2022-12-03T08:45:52.851Z,82.22
2022-12-03T08:48:28.189Z,74.43
2022-12-03T08:50:57.849Z,85.80
2022-12-03T08:53:30.109Z,79.22
2022-12-03T08:56:00.394Z,86.07
2022-12-03T08:58:38.710Z,84.57
2022-12-03T09:01:30.390Z,78.85
2022-12-03T09:04:06.950Z,78.32
2022-12-03T09:06:35.032Z,86.13
2022-12-03T09:09:06.744Z,79.18
2022-12-03T09:11:35.226Z,78.88
2022-12-03T09:14:03.673Z,91.43
2022-12-03T09:16:33.726Z,84.82
2022-12-03T09:19:02.138Z,83.05
2022-12-03T09:21:30.225Z,91.68
2022-12-03T09:23:58.645Z,84.30
2022-12-03T09:26:27.260Z,85.25
2022-12-03T09:28:55.698Z,85.88
2022-12-03T09:31:24.118Z,85.97
2022-12-03T09:33:53.795Z,82.55
2022-12-03T09:36:22.189Z,83.78
2022-12-03T09:38:50.657Z,86.05
2022-12-03T09:41:18.833Z,82.53
2022-12-03T09:44:03.969Z,80.82
2022-12-03T09:46:33.116Z,87.07
2022-12-03T09:49:03.807Z,82.20
2022-12-03T09:51:34.385Z,86.32
2022-12-03T09:54:03.189Z,91.65
2022-12-03T09:56:31.357Z,85.75
2022-12-03T09:58:59.710Z,77.55
2022-12-03T10:01:30.286Z,76.82
2022-12-03T10:06:30.505Z,74.15
2022-12-03T10:09:00.147Z,77.70
2022-12-03T10:11:28.772Z,80.70
2022-12-03T10:13:58.171Z,83.70
2022-12-03T10:16:26.587Z,80.43
2022-12-03T10:18:57.052Z,89.50
2022-12-03T10:21:31.314Z,93.78
2022-12-03T10:24:20.806Z,94.95
2022-12-03T10:26:52.029Z,93.97
2022-12-03T10:29:22.699Z,101.63
2022-12-03T10:31:59.023Z,99.63
2022-12-03T10:34:31.570Z,93.20
2022-12-03T10:37:11.595Z,94.30
2022-12-03T10:39:58.979Z,131.52
2022-12-03T10:42:28.181Z,93.95
2022-12-03T10:45:13.933Z,93.55
2022-12-03T10:47:42.347Z,173.80
2022-12-03T10:50:18.295Z,93.97
2022-12-03T10:52:46.941Z,153.45
2022-12-03T10:55:17.490Z,102.70
2022-12-03T10:57:46.402Z,99.75
2022-12-03T11:00:17.673Z,102.47
2022-12-03T11:02:46.782Z,107.63
2022-12-03T11:05:27.535Z,105.97
2022-12-03T11:07:55.821Z,106.18
2022-12-03T11:10:25.979Z,115.88
2022-12-03T11:13:28.760Z,104.97
2022-12-03T11:15:58.168Z,123.95
2022-12-03T11:18:58.902Z,119.28
2022-12-03T11:21:27.518Z,196.50
2022-12-03T11:24:20.748Z,119.57
2022-12-03T11:27:19.036Z,114.57
2022-12-03T11:29:54.990Z,115.90
2022-12-03T11:33:00.048Z,100.50
2022-12-03T11:35:29.140Z,104.05
2022-12-03T11:38:35.998Z,101.68
2022-12-03T11:41:11.505Z,101.80
2022-12-03T11:44:01.524Z,106.00
2022-12-03T11:46:31.165Z,107.78
2022-12-03T11:49:00.600Z,104.22
2022-12-03T11:51:29.870Z,112.20
2022-12-03T11:54:00.153Z,107.47
2022-12-03T11:56:29.518Z,104.30
2022-12-03T11:59:01.493Z,122.32
2022-12-03T12:01:38.828Z,114.65
2022-12-03T12:04:08.166Z,115.15
2022-12-03T12:06:42.665Z,104.50
2022-12-03T12:09:11.319Z,120.10
2022-12-03T12:11:41.555Z,103.95
2022-12-03T12:14:12.806Z,102.15
2022-12-03T12:16:51.474Z,106.35
2022-12-03T12:19:34.287Z,97.78
2022-12-03T12:22:17.746Z,110.50
2022-12-03T12:24:51.634Z,107.50
2022-12-03T12:27:21.935Z,108.65
2022-12-03T12:29:56.605Z,115.40
2022-12-03T12:32:27.568Z,111.78
2022-12-03T12:34:58.447Z,109.10
2022-12-03T12:37:33.009Z,108.93
2022-12-03T12:40:02.783Z,114.82
2022-12-03T12:42:35.699Z,119.43
2022-12-03T12:45:15.934Z,111.88
2022-12-03T12:47:50.980Z,104.57
2022-12-03T12:50:20.312Z,106.30
2022-12-03T12:52:51.280Z,117.50
2022-12-03T12:57:48.273Z,104.95
2022-12-03T13:00:23.677Z,110.40
2022-12-03T13:02:53.323Z,110.70
2022-12-03T13:05:22.082Z,106.50
2022-12-03T13:07:50.554Z,109.60
2022-12-03T13:10:32.735Z,112.78
2022-12-03T13:13:02.570Z,100.95
2022-12-03T13:15:40.332Z,106.97
2022-12-03T13:18:23.222Z,105.90
2022-12-03T13:20:51.655Z,97.15
2022-12-03T13:23:35.181Z,113.93
2022-12-03T13:26:19.385Z,102.03
2022-12-03T13:28:55.244Z,98.47
2022-12-03T13:31:27.527Z,121.57
2022-12-03T13:33:56.794Z,108.18
2022-12-03T13:36:31.644Z,109.03
2022-12-03T13:38:59.782Z,112.30
2022-12-03T13:41:46.971Z,119.15
2022-12-03T13:44:17.735Z,114.43
2022-12-03T13:46:48.503Z,106.65
2022-12-03T13:49:20.299Z,109.85
2022-12-03T13:51:49.145Z,110.18
2022-12-03T13:54:21.675Z,109.55
2022-12-03T13:56:50.760Z,107.28
2022-12-03T13:59:24.421Z,114.68
2022-12-03T14:01:54.523Z,108.40
2022-12-03T14:04:22.658Z,111.57
2022-12-03T14:06:51.031Z,115.90
2022-12-03T14:09:19.195Z,105.55
2022-12-03T14:12:07.460Z,115.68
2022-12-03T14:14:35.488Z,104.72
2022-12-03T14:17:05.678Z,108.35
2022-12-03T14:19:33.792Z,107.95
2022-12-03T14:22:02.669Z,110.43
2022-12-03T14:24:30.674Z,109.53
2022-12-03T14:26:59.052Z,109.45
2022-12-03T14:29:27.320Z,111.55
2022-12-03T14:31:56.006Z,120.30
2022-12-03T14:34:25.624Z,103.20
2022-12-03T14:36:54.085Z,105.07
2022-12-03T14:39:22.451Z,113.53
2022-12-03T14:42:08.447Z,115.53
2022-12-03T14:44:36.649Z,106.97
2022-12-03T14:47:05.287Z,112.13
2022-12-03T14:49:35.189Z,108.68
2022-12-03T14:52:03.742Z,105.47
2022-12-03T14:54:33.147Z,117.80
2022-12-03T14:57:01.616Z,111.00
2022-12-03T14:59:29.886Z,111.22
2022-12-03T15:02:00.980Z,111.85
2022-12-03T15:04:29.311Z,121.70
2022-12-03T15:06:59.013Z,123.70
2022-12-03T15:09:27.346Z,134.40
2022-12-03T15:11:55.693Z,124.55
2022-12-03T15:14:23.853Z,133.65
2022-12-03T15:16:52.315Z,119.07
2022-12-03T15:19:20.443Z,144.13
2022-12-03T15:21:49.020Z,139.50
2022-12-03T15:24:18.469Z,140.18
2022-12-03T15:26:46.944Z,121.97
2022-12-03T15:29:15.014Z,144.10
2022-12-03T15:31:43.457Z,150.82
2022-12-03T15:34:11.522Z,135.30
2022-12-03T15:36:40.105Z,149.32
2022-12-03T15:39:08.132Z,137.73
2022-12-03T15:41:37.926Z,137.23
2022-12-03T15:44:06.120Z,134.23
2022-12-03T15:46:34.597Z,142.82
2022-12-03T15:49:02.665Z,133.20
2022-12-03T15:51:31.048Z,139.05
2022-12-03T15:53:59.183Z,135.48
2022-12-03T15:56:27.586Z,126.40
2022-12-03T15:58:57.183Z,137.57
2022-12-03T16:01:25.895Z,123.53
2022-12-03T16:03:54.005Z,128.15
2022-12-03T16:06:22.454Z,132.50
2022-12-03T16:08:50.500Z,130.88
2022-12-03T16:11:18.799Z,127.15
2022-12-03T16:13:46.903Z,131.23
2022-12-03T16:16:16.697Z,122.68
2022-12-03T16:18:44.887Z,129.63
2022-12-03T16:21:13.184Z,118.82
2022-12-03T16:23:41.772Z,119.43
2022-12-03T16:26:10.117Z,117.22
2022-12-03T16:28:38.171Z,108.00
2022-12-03T16:31:06.851Z,114.78
2022-12-03T16:33:36.475Z,123.45
2022-12-03T16:36:05.131Z,117.75
2022-12-03T16:38:33.792Z,118.75
2022-12-03T16:41:02.395Z,121.90
2022-12-03T16:43:30.565Z,118.75
2022-12-03T16:46:12.924Z,117.85
2022-12-03T16:48:42.401Z,118.75
2022-12-03T16:51:10.907Z,112.68
2022-12-03T16:53:39.551Z,113.10
2022-12-03T16:56:08.024Z,118.40
2022-12-03T16:58:36.176Z,114.43
2022-12-03T17:01:04.656Z,111.50
2022-12-03T17:03:34.200Z,121.43
2022-12-03T17:06:04.671Z,109.32
2022-12-03T17:08:32.935Z,108.30
2022-12-03T17:11:01.334Z,116.38
2022-12-03T17:13:29.442Z,117.22
2022-12-03T17:15:57.874Z,126.05
2022-12-03T17:18:27.117Z,116.90
2022-12-03T17:20:55.463Z,131.38
2022-12-03T17:23:25.000Z,125.63
2022-12-03T17:25:53.347Z,151.60
2022-12-03T17:28:21.406Z,142.30
2022-12-03T17:30:49.941Z,132.15
2022-12-03T17:33:18.116Z,127.15
2022-12-03T17:35:46.848Z,129.98
2022-12-03T17:38:15.022Z,120.63
2022-12-03T17:40:44.792Z,119.82
2022-12-03T17:43:12.868Z,129.85
2022-12-03T17:45:41.871Z,165.63
2022-12-03T17:48:10.180Z,166.25
2022-12-03T17:50:38.814Z,138.75
2022-12-03T17:53:10.337Z,109.85
2022-12-03T17:55:44.535Z,121.20
2022-12-03T17:58:14.947Z,113.13
2022-12-03T18:00:43.719Z,118.38
2022-12-03T18:03:11.853Z,121.07
2022-12-03T18:05:40.265Z,140.48
2022-12-03T18:08:08.489Z,131.10
2022-12-03T18:10:36.937Z,162.13
2022-12-03T18:13:05.081Z,131.50
2022-12-03T18:15:34.852Z,132.20
2022-12-03T18:18:02.960Z,134.98
2022-12-03T18:20:31.491Z,108.50
2022-12-03T18:23:00.306Z,104.75
2022-12-03T18:25:29.710Z,97.95
2022-12-03T18:27:58.195Z,99.68
2022-12-03T18:30:26.750Z,102.53
2022-12-03T18:32:56.457Z,99.50
2022-12-03T18:35:25.021Z,103.13
2022-12-03T18:37:53.138Z,90.82
2022-12-03T18:40:24.297Z,103.72
2022-12-03T18:42:52.453Z,99.30
2022-12-03T18:45:21.116Z,96.53
2022-12-03T18:47:49.375Z,97.35
2022-12-03T18:50:19.358Z,95.50
2022-12-03T18:52:47.457Z,104.22
2022-12-03T18:55:19.240Z,97.78
2022-12-03T18:57:47.421Z,102.60
2022-12-03T19:00:16.685Z,100.20
2022-12-03T19:05:36.184Z,95.90
2022-12-03T19:08:12.592Z,89.82
2022-12-03T19:10:42.287Z,91.85
2022-12-03T19:13:10.626Z,99.22
2022-12-03T19:15:39.051Z,81.03
2022-12-03T19:18:07.653Z,89.90
2022-12-03T19:20:41.178Z,86.95
2022-12-03T19:23:10.117Z,90.25
2022-12-03T19:25:38.631Z,83.03
2022-12-03T19:28:06.897Z,86.72
2022-12-03T19:30:35.430Z,81.38
2022-12-03T19:33:03.583Z,82.20
2022-12-03T19:35:32.745Z,82.05
2022-12-03T19:38:02.616Z,85.55
2022-12-03T19:40:32.191Z,83.72
2022-12-03T19:43:00.512Z,85.72
2022-12-03T19:45:28.977Z,90.68
2022-12-03T19:47:57.194Z,84.93
2022-12-03T19:50:25.780Z,88.30
2022-12-03T19:52:54.029Z,86.10
2022-12-03T19:55:24.038Z,86.20
2022-12-03T19:57:52.432Z,85.32
2022-12-03T20:00:21.240Z,90.25
2022-12-03T20:02:50.720Z,95.40
2022-12-03T20:05:19.321Z,94.88
2022-12-03T20:07:47.746Z,95.20
2022-12-03T20:10:16.488Z,87.97
2022-12-03T20:12:46.099Z,89.45
2022-12-03T20:15:14.961Z,94.15
2022-12-03T20:17:43.192Z,91.68
2022-12-03T20:20:12.286Z,96.93
2022-12-03T20:22:40.536Z,93.03
2022-12-03T20:25:09.621Z,92.57
2022-12-03T20:27:39.976Z,92.88
2022-12-03T20:30:11.428Z,92.75
2022-12-03T20:32:45.068Z,91.90
2022-12-03T20:35:13.821Z,96.45
2022-12-03T20:37:42.078Z,109.15
2022-12-03T20:40:11.394Z,121.22
2022-12-03T20:42:39.480Z,122.90
2022-12-03T20:45:10.644Z,120.40
2022-12-03T20:47:38.794Z,109.32
2022-12-03T20:50:08.503Z,113.50
2022-12-03T20:52:36.702Z,100.00
2022-12-03T20:55:05.680Z,105.53
2022-12-03T20:57:33.823Z,89.07
2022-12-03T21:00:02.280Z,90.43
2022-12-03T21:02:31.820Z,88.00
2022-12-03T21:05:00.392Z,89.68
2022-12-03T21:07:29.195Z,86.22
2022-12-03T21:09:57.804Z,86.95
2022-12-03T21:12:26.189Z,89.68
2022-12-03T21:14:54.798Z,88.72
2022-12-03T21:17:23.004Z,84.93
2022-12-03T21:19:53.313Z,83.45
2022-12-03T21:22:21.507Z,73.00
2022-12-03T21:24:49.951Z,87.80
2022-12-03T21:27:21.642Z,71.80
2022-12-03T21:29:50.559Z,83.28
2022-12-03T21:32:18.747Z,84.25
2022-12-03T21:34:47.301Z,82.57
2022-12-03T21:37:16.730Z,82.47
2022-12-03T21:39:45.301Z,78.40
2022-12-03T21:42:34.312Z,80.68
2022-12-03T21:45:01.972Z,92.20
2022-12-03T21:47:36.701Z,81.93
2022-12-03T21:50:07.160Z,79.65
2022-12-03T21:52:37.161Z,88.65
2022-12-03T21:55:06.408Z,82.43
2022-12-03T21:57:36.394Z,85.53
2022-12-03T22:00:06.097Z,80.30
2022-12-03T22:02:34.568Z,84.15
2022-12-03T22:05:03.154Z,86.45
2022-12-03T22:07:33.916Z,89.85
2022-12-03T22:10:04.228Z,81.85
2022-12-03T22:12:32.652Z,87.85
2022-12-03T22:15:00.996Z,83.65
2022-12-03T22:17:29.149Z,95.72
2022-12-03T22:19:57.680Z,88.97
2022-12-03T22:22:26.846Z,86.93
2022-12-03T22:24:55.264Z,89.47
2022-12-03T22:27:25.183Z,91.72
2022-12-03T22:29:53.996Z,89.72
2022-12-03T22:32:22.236Z,95.25
2022-12-03T22:34:50.769Z,87.13
2022-12-03T22:37:18.893Z,86.63
2022-12-03T22:39:47.333Z,88.68
2022-12-03T22:42:15.494Z,85.80
2022-12-03T22:44:45.311Z,86.85
2022-12-03T22:47:13.418Z,92.97
2022-12-03T22:49:41.819Z,103.78
2022-12-03T22:52:12.916Z,94.70
2022-12-03T22:54:41.218Z,88.32
2022-12-03T22:57:09.395Z,88.75
2022-12-03T22:59:37.842Z,88.93
2022-12-03T23:02:07.400Z,83.18
2022-12-03T23:04:36.085Z,88.10
2022-12-03T23:07:04.163Z,85.68
2022-12-03T23:09:32.492Z,87.28
2022-12-03T23:12:00.687Z,86.20
2022-12-03T23:14:29.457Z,84.05
2022-12-03T23:16:57.547Z,76.03
2022-12-03T23:19:27.238Z,84.03
2022-12-03T23:21:55.324Z,77.82
2022-12-03T23:24:23.628Z,77.82
2022-12-03T23:26:51.876Z,82.90
2022-12-03T23:29:20.371Z,78.13
2022-12-03T23:31:48.532Z,75.93
2022-12-03T23:34:17.018Z,71.47
2022-12-03T23:36:46.645Z,73.70
2022-12-03T23:39:15.040Z,78.88
2022-12-03T23:41:43.184Z,72.68
2022-12-03T23:44:11.711Z,74.93
2022-12-03T23:46:40.304Z,79.20
2022-12-03T23:49:09.064Z,74.32
2022-12-03T23:51:37.217Z,79.63
2022-12-03T23:54:07.311Z,77.72
2022-12-03T23:56:35.420Z,71.90
2022-12-03T23:59:03.768Z,72.03
